createdAt,value
2018-03-04T00:00:01.578Z,80.07
2018-03-04T00:02:29.337Z,79.73
2018-03-04T00:04:57.052Z,80.14
2018-03-04T00:07:24.833Z,80.28
2018-03-04T00:09:52.595Z,80.14
2018-03-04T00:12:20.308Z,80.14
2018-03-04T00:14:48.152Z,80.77
2018-03-04T00:17:15.873Z,80.82
2018-03-04T00:19:43.549Z,80.59
2018-03-04T00:22:11.325Z,80.63
2018-03-04T00:24:39.072Z,80.89
2018-03-04T00:27:06.830Z,80.54
2018-03-04T00:29:34.591Z,80.50
2018-03-04T00:32:02.287Z,81.33
2018-03-04T00:34:30.054Z,81.31
2018-03-04T00:36:57.838Z,81.15
2018-03-04T00:39:25.635Z,81.01
2018-03-04T00:41:53.288Z,80.75
2018-03-04T00:44:21.052Z,81.05
2018-03-04T00:46:48.807Z,80.59
2018-03-04T00:49:16.484Z,81.35
2018-03-04T00:51:44.133Z,81.09
2018-03-04T00:54:11.885Z,81.24
2018-03-04T00:56:39.582Z,81.34
2018-03-04T00:59:07.240Z,80.71
2018-03-04T01:01:35.003Z,80.80
2018-03-04T01:04:02.674Z,81.88
2018-03-04T01:06:30.409Z,83.04
2018-03-04T01:08:58.070Z,82.80
2018-03-04T01:11:25.764Z,82.19
2018-03-04T01:13:53.608Z,81.39
2018-03-04T01:16:21.332Z,80.69
2018-03-04T01:18:49.071Z,80.40
2018-03-04T01:21:16.787Z,80.75
2018-03-04T01:23:44.514Z,80.72
2018-03-04T01:26:12.214Z,80.39
2018-03-04T01:28:40.024Z,80.28
2018-03-04T01:31:07.804Z,80.44
2018-03-04T01:33:35.517Z,80.38
2018-03-04T01:36:03.253Z,80.15
2018-03-04T01:38:31.007Z,80.87
2018-03-04T01:40:58.716Z,80.70
2018-03-04T01:43:27.270Z,80.71
2018-03-04T01:45:54.985Z,80.87
2018-03-04T01:48:22.683Z,81.66
2018-03-04T01:50:50.412Z,81.76
2018-03-04T01:53:18.180Z,81.28
2018-03-04T01:55:45.930Z,80.79
2018-03-04T01:58:13.672Z,80.76
2018-03-04T02:00:41.403Z,81.34
2018-03-04T02:03:09.167Z,81.13
2018-03-04T02:05:36.828Z,80.81
2018-03-04T02:08:04.570Z,80.49
2018-03-04T02:10:32.329Z,80.33
2018-03-04T02:13:00.039Z,80.34
2018-03-04T02:15:27.765Z,79.96
2018-03-04T02:17:56.043Z,80.59
2018-03-04T02:20:23.914Z,80.69
2018-03-04T02:22:51.583Z,81.04
2018-03-04T02:25:19.294Z,80.67
2018-03-04T02:27:47.034Z,80.87
2018-03-04T02:30:14.698Z,80.46
2018-03-04T02:32:42.363Z,80.12
2018-03-04T02:35:10.120Z,80.32
2018-03-04T02:37:37.939Z,80.43
2018-03-04T02:40:05.605Z,80.89
2018-03-04T02:42:33.274Z,80.92
2018-03-04T02:45:00.987Z,81.40
2018-03-04T02:47:28.686Z,81.32
2018-03-04T02:49:56.410Z,82.55
2018-03-04T02:52:26.675Z,82.21
2018-03-04T02:54:54.344Z,81.60
2018-03-04T02:57:22.076Z,82.28
2018-03-04T02:59:49.798Z,81.53
2018-03-04T03:02:17.548Z,80.88
2018-03-04T03:04:45.224Z,80.57
2018-03-04T03:07:12.899Z,80.44
2018-03-04T03:09:40.618Z,80.87
2018-03-04T03:12:08.375Z,80.81
2018-03-04T03:14:36.096Z,81.14
2018-03-04T03:17:03.826Z,81.28
2018-03-04T03:19:31.594Z,81.37
2018-03-04T03:21:59.339Z,81.27
2018-03-04T03:24:27.040Z,81.25
2018-03-04T03:26:54.760Z,81.73
2018-03-04T03:29:22.458Z,81.84
2018-03-04T03:31:50.187Z,81.80
2018-03-04T03:34:17.880Z,82.19
2018-03-04T03:36:45.578Z,83.43
2018-03-04T03:39:13.307Z,83.74
2018-03-04T03:41:41.050Z,82.79
2018-03-04T03:44:08.719Z,82.48
2018-03-04T03:46:36.448Z,83.14
2018-03-04T03:49:04.141Z,83.03
2018-03-04T03:51:31.873Z,83.13
2018-03-04T03:53:59.626Z,84.94
2018-03-04T03:56:27.303Z,85.15
2018-03-04T03:58:55.086Z,86.02
2018-03-04T04:01:22.764Z,86.34
2018-03-04T04:03:50.551Z,87.34
2018-03-04T04:06:18.240Z,87.40
2018-03-04T04:08:45.921Z,88.20
2018-03-04T04:11:13.666Z,88.29
2018-03-04T04:13:41.399Z,87.47
2018-03-04T04:16:09.089Z,85.54
2018-03-04T04:18:36.820Z,86.00
2018-03-04T04:21:04.554Z,86.42
2018-03-04T04:23:32.310Z,85.29
2018-03-04T04:25:59.979Z,85.27
2018-03-04T04:28:27.720Z,84.99
2018-03-04T04:30:55.443Z,85.22
2018-03-04T04:33:23.225Z,86.00
2018-03-04T04:35:50.944Z,86.28
2018-03-04T04:38:18.693Z,86.20
2018-03-04T04:40:46.378Z,86.67
2018-03-04T04:43:14.076Z,86.36
2018-03-04T04:45:41.863Z,88.01
2018-03-04T04:48:09.558Z,87.20
2018-03-04T04:50:37.262Z,87.44
2018-03-04T04:53:04.926Z,87.53
2018-03-04T04:55:32.644Z,88.30
2018-03-04T04:58:00.413Z,89.00
2018-03-04T05:00:28.140Z,89.62
2018-03-04T05:02:55.897Z,90.22
2018-03-04T05:05:23.593Z,90.05
2018-03-04T05:07:51.317Z,89.93
2018-03-04T05:10:19.008Z,90.04
2018-03-04T05:12:46.760Z,90.48
2018-03-04T05:15:14.491Z,90.25
2018-03-04T05:17:42.263Z,89.70
2018-03-04T05:20:09.967Z,89.94
2018-03-04T05:22:37.684Z,89.52
2018-03-04T05:25:05.417Z,89.52
2018-03-04T05:27:33.392Z,89.99
2018-03-04T05:30:01.119Z,90.00
2018-03-04T05:32:28.864Z,89.67
2018-03-04T05:34:56.694Z,89.19
2018-03-04T05:37:24.415Z,88.79
2018-03-04T05:39:52.128Z,89.00
2018-03-04T05:42:19.850Z,88.28
2018-03-04T05:44:47.611Z,88.46
2018-03-04T05:47:15.351Z,88.61
2018-03-04T05:49:43.104Z,89.36
2018-03-04T05:52:10.809Z,89.58
2018-03-04T05:54:38.479Z,89.96
2018-03-04T05:57:06.221Z,89.83
2018-03-04T05:59:33.949Z,89.15
2018-03-04T06:02:01.701Z,89.03
2018-03-04T06:04:29.398Z,89.39
2018-03-04T06:06:57.172Z,89.60
2018-03-04T06:09:24.858Z,89.51
2018-03-04T06:11:52.676Z,89.33
2018-03-04T06:14:20.470Z,89.13
2018-03-04T06:16:48.227Z,89.05
2018-03-04T06:19:15.896Z,89.25
2018-03-04T06:21:43.642Z,88.65
2018-03-04T06:24:11.318Z,88.08
2018-03-04T06:26:39.116Z,88.19
2018-03-04T06:29:06.912Z,87.94
2018-03-04T06:31:34.600Z,87.57
2018-03-04T06:34:02.356Z,87.50
2018-03-04T06:36:30.109Z,87.74
2018-03-04T06:38:57.846Z,87.31
2018-03-04T06:41:25.587Z,87.31
2018-03-04T06:43:53.363Z,87.03
2018-03-04T06:46:21.073Z,87.08
2018-03-04T06:48:48.772Z,87.65
2018-03-04T06:51:16.656Z,86.95
2018-03-04T06:53:44.357Z,86.93
2018-03-04T06:56:12.094Z,87.04
2018-03-04T06:58:39.807Z,88.41
2018-03-04T07:01:07.538Z,87.61
2018-03-04T07:03:35.322Z,87.66
2018-03-04T07:06:03.077Z,87.71
2018-03-04T07:08:30.850Z,87.28
2018-03-04T07:10:58.628Z,87.39
2018-03-04T07:13:26.421Z,86.49
2018-03-04T07:15:54.140Z,85.20
2018-03-04T07:18:21.908Z,84.34
2018-03-04T07:20:49.663Z,83.77
2018-03-04T07:23:17.451Z,83.52
2018-03-04T07:25:45.234Z,83.09
2018-03-04T07:28:13.020Z,82.82
2018-03-04T07:30:40.910Z,83.14
2018-03-04T07:33:08.694Z,82.29
2018-03-04T07:35:36.501Z,81.04
2018-03-04T07:38:04.259Z,81.28
2018-03-04T07:40:32.078Z,82.57
2018-03-04T07:43:01.005Z,82.24
2018-03-04T07:45:29.486Z,82.74
2018-03-04T07:47:57.269Z,82.69
2018-03-04T07:50:24.955Z,82.64
2018-03-04T07:52:53.359Z,81.92
2018-03-04T07:55:21.097Z,81.78
2018-03-04T07:57:48.864Z,81.01
2018-03-04T08:00:16.594Z,80.97
2018-03-04T08:02:44.840Z,80.75
2018-03-04T08:05:12.600Z,80.14
2018-03-04T08:07:40.462Z,79.69
2018-03-04T08:10:08.255Z,78.73
2018-03-04T08:12:36.009Z,78.12
2018-03-04T08:15:03.814Z,78.68
2018-03-04T08:17:32.659Z,78.73
2018-03-04T08:20:00.382Z,78.93
2018-03-04T08:22:28.191Z,78.04
2018-03-04T08:25:07.590Z,79.06
2018-03-04T08:27:47.962Z,77.56
2018-03-04T08:30:15.922Z,78.83
2018-03-04T08:32:43.890Z,77.79
2018-03-04T08:35:11.960Z,76.97
2018-03-04T08:37:40.656Z,73.95
2018-03-04T08:40:08.539Z,72.64
2018-03-04T08:42:36.334Z,70.35
2018-03-04T08:45:04.069Z,69.22
2018-03-04T08:47:31.824Z,69.40
2018-03-04T08:49:59.838Z,68.52
2018-03-04T08:52:27.600Z,67.81
2018-03-04T08:54:56.361Z,63.97
2018-03-04T08:57:24.161Z,64.57
2018-03-04T08:59:51.981Z,64.54
2018-03-04T09:02:20.028Z,64.94
2018-03-04T09:04:48.117Z,65.32
2018-03-04T09:07:16.053Z,64.35
2018-03-04T09:09:44.146Z,64.04
2018-03-04T09:12:12.036Z,63.89
2018-03-04T09:14:39.953Z,64.18
2018-03-04T09:17:08.892Z,61.23
2018-03-04T09:19:37.441Z,59.56
2018-03-04T09:22:05.305Z,59.87
2018-03-04T09:24:33.174Z,59.16
2018-03-04T09:27:02.228Z,56.19
2018-03-04T09:29:29.961Z,56.92
2018-03-04T09:31:58.693Z,57.60
2018-03-04T09:34:26.463Z,58.43
2018-03-04T09:36:54.131Z,57.61
2018-03-04T09:39:21.911Z,58.74
2018-03-04T09:41:49.616Z,56.75
2018-03-04T09:44:17.443Z,57.75
2018-03-04T09:46:45.133Z,59.80
2018-03-04T09:49:12.892Z,63.35
2018-03-04T09:51:41.371Z,61.10
2018-03-04T09:54:09.094Z,60.85
2018-03-04T09:56:36.868Z,59.39
2018-03-04T09:59:04.606Z,58.40
2018-03-04T10:01:32.634Z,56.44
2018-03-04T10:04:00.356Z,56.13
2018-03-04T10:06:28.232Z,54.82
2018-03-04T10:08:55.931Z,55.27
2018-03-04T10:11:23.672Z,55.48
2018-03-04T10:13:51.402Z,55.89
2018-03-04T10:16:19.114Z,54.63
2018-03-04T10:18:46.876Z,53.16
2018-03-04T10:21:14.644Z,52.11
2018-03-04T10:23:42.381Z,52.81
2018-03-04T10:26:10.142Z,50.61
2018-03-04T10:28:37.836Z,52.11
2018-03-04T10:31:05.603Z,54.37
2018-03-04T10:33:33.363Z,53.43
2018-03-04T10:36:01.113Z,53.78
2018-03-04T10:38:28.825Z,51.33
2018-03-04T10:40:56.623Z,51.62
2018-03-04T10:43:24.320Z,52.21
2018-03-04T10:45:52.778Z,52.27
2018-03-04T10:48:20.474Z,49.62
2018-03-04T10:50:48.229Z,50.06
2018-03-04T10:53:16.116Z,51.21
2018-03-04T10:55:43.874Z,49.12
2018-03-04T10:58:11.604Z,49.12
2018-03-04T11:00:44.826Z,51.15
2018-03-04T11:03:18.945Z,50.56
2018-03-04T11:05:46.752Z,52.23
2018-03-04T11:08:14.508Z,48.93
2018-03-04T11:10:42.214Z,47.56
2018-03-04T11:13:09.958Z,49.39
2018-03-04T11:15:37.674Z,50.23
2018-03-04T11:18:05.428Z,48.23
2018-03-04T11:20:33.152Z,48.45
2018-03-04T11:23:00.906Z,50.72
2018-03-04T11:25:28.682Z,51.14
2018-03-04T11:27:56.405Z,49.91
2018-03-04T11:30:24.182Z,48.74
2018-03-04T11:32:51.898Z,48.55
2018-03-04T11:35:19.594Z,50.06
2018-03-04T11:37:47.391Z,50.30
2018-03-04T11:40:15.124Z,49.48
2018-03-04T11:42:42.863Z,47.47
2018-03-04T11:45:11.390Z,48.27
2018-03-04T11:47:39.334Z,47.24
2018-03-04T11:50:07.078Z,46.95
2018-03-04T11:52:34.873Z,47.04
2018-03-04T11:55:02.661Z,46.55
2018-03-04T11:57:30.445Z,45.74
2018-03-04T11:59:58.135Z,47.37
2018-03-04T12:02:25.847Z,47.82
2018-03-04T12:04:53.617Z,47.84
2018-03-04T12:07:21.378Z,45.74
2018-03-04T12:09:49.117Z,46.24
2018-03-04T12:12:16.824Z,45.71
2018-03-04T12:14:44.748Z,45.82
2018-03-04T12:17:12.479Z,46.21
2018-03-04T12:19:40.223Z,45.83
2018-03-04T12:22:07.938Z,45.70
2018-03-04T12:24:35.755Z,43.63
2018-03-04T12:27:03.481Z,44.28
2018-03-04T12:29:31.250Z,43.67
2018-03-04T12:31:59.062Z,42.81
2018-03-04T12:34:26.811Z,43.69
2018-03-04T12:36:55.787Z,44.07
2018-03-04T12:39:23.573Z,43.94
2018-03-04T12:41:51.385Z,44.65
2018-03-04T12:44:19.105Z,45.04
2018-03-04T12:46:46.794Z,43.76
2018-03-04T12:49:14.569Z,44.49
2018-03-04T12:51:42.317Z,45.17
2018-03-04T12:54:10.068Z,44.31
2018-03-04T12:56:39.049Z,42.20
2018-03-04T12:59:06.870Z,42.44
2018-03-04T13:01:34.641Z,43.43
2018-03-04T13:04:02.378Z,43.06
2018-03-04T13:06:30.082Z,42.94
2018-03-04T13:08:57.903Z,42.61
2018-03-04T13:11:25.681Z,42.92
2018-03-04T13:13:53.441Z,42.80
2018-03-04T13:16:21.144Z,41.90
2018-03-04T13:18:48.947Z,41.20
2018-03-04T13:21:16.658Z,42.08
2018-03-04T13:23:44.328Z,42.49
2018-03-04T13:26:12.095Z,41.94
2018-03-04T13:28:40.618Z,41.88
2018-03-04T13:31:08.395Z,42.04
2018-03-04T13:33:36.086Z,42.83
2018-03-04T13:36:03.960Z,42.03
2018-03-04T13:38:31.730Z,40.83
2018-03-04T13:40:59.493Z,40.54
2018-03-04T13:43:27.260Z,40.27
2018-03-04T13:45:54.996Z,40.13
2018-03-04T13:48:22.703Z,40.42
2018-03-04T13:50:50.446Z,40.78
2018-03-04T13:53:18.134Z,41.45
2018-03-04T13:55:45.891Z,43.75
2018-03-04T13:58:13.617Z,41.45
2018-03-04T14:00:41.366Z,41.77
2018-03-04T14:03:09.079Z,43.08
2018-03-04T14:05:36.748Z,44.09
2018-03-04T14:08:04.522Z,43.96
2018-03-04T14:10:32.210Z,44.13
2018-03-04T14:12:59.976Z,44.47
2018-03-04T14:15:27.707Z,44.73
2018-03-04T14:17:55.410Z,44.62
2018-03-04T14:20:23.184Z,45.32
2018-03-04T14:22:50.867Z,45.76
2018-03-04T14:25:18.642Z,45.00
2018-03-04T14:27:46.377Z,43.99
2018-03-04T14:30:14.067Z,44.30
2018-03-04T14:32:41.869Z,45.79
2018-03-04T14:35:09.555Z,45.93
2018-03-04T14:37:37.296Z,46.63
2018-03-04T14:40:05.839Z,47.45
2018-03-04T14:42:33.532Z,47.26
2018-03-04T14:45:01.282Z,49.01
2018-03-04T14:47:29.126Z,48.98
2018-03-04T14:49:56.823Z,48.26
2018-03-04T14:52:25.870Z,47.79
2018-03-04T14:54:53.550Z,50.15
2018-03-04T14:57:21.309Z,49.23
2018-03-04T14:59:49.082Z,49.39
2018-03-04T15:02:16.789Z,50.98
2018-03-04T15:04:44.560Z,51.37
2018-03-04T15:07:13.599Z,52.32
2018-03-04T15:09:41.346Z,53.44
2018-03-04T15:12:09.116Z,53.91
2018-03-04T15:14:36.834Z,52.10
2018-03-04T15:17:04.590Z,52.68
2018-03-04T15:19:32.278Z,54.35
2018-03-04T15:22:00.030Z,54.43
2018-03-04T15:24:27.806Z,55.88
2018-03-04T15:26:55.585Z,57.47
2018-03-04T15:29:23.294Z,58.71
2018-03-04T15:31:51.062Z,57.48
2018-03-04T15:34:18.823Z,57.68
2018-03-04T15:36:46.587Z,58.08
2018-03-04T15:39:14.349Z,59.46
2018-03-04T15:41:42.044Z,60.18
2018-03-04T15:44:09.837Z,60.94
2018-03-04T15:46:37.538Z,61.08
2018-03-04T15:49:05.253Z,60.05
2018-03-04T15:51:32.995Z,61.51
2018-03-04T15:54:00.770Z,62.79
2018-03-04T15:56:28.487Z,63.51
2018-03-04T15:58:56.212Z,63.95
2018-03-04T16:01:23.952Z,64.35
2018-03-04T16:03:51.656Z,64.00
2018-03-04T16:06:19.410Z,64.77
2018-03-04T16:08:47.097Z,63.92
2018-03-04T16:11:14.793Z,64.36
2018-03-04T16:13:42.559Z,63.87
2018-03-04T16:16:10.361Z,63.49
2018-03-04T16:18:39.066Z,64.45
2018-03-04T16:21:07.015Z,63.85
2018-03-04T16:23:34.774Z,65.26
2018-03-04T16:26:02.463Z,66.38
2018-03-04T16:28:30.216Z,65.17
2018-03-04T16:30:57.940Z,66.02
2018-03-04T16:33:25.687Z,67.82
2018-03-04T16:35:53.375Z,68.30
2018-03-04T16:38:21.130Z,67.72
2018-03-04T16:40:48.904Z,66.89
2018-03-04T16:43:16.607Z,66.91
2018-03-04T16:45:44.362Z,68.77
2018-03-04T16:48:12.073Z,68.18
2018-03-04T16:50:39.879Z,67.08
2018-03-04T16:53:07.553Z,66.85
2018-03-04T16:55:35.313Z,67.54
2018-03-04T16:58:02.965Z,67.00
2018-03-04T17:00:30.684Z,67.34
2018-03-04T17:02:58.506Z,67.30
2018-03-04T17:05:26.297Z,67.60
2018-03-04T17:07:54.061Z,67.25
2018-03-04T17:10:21.807Z,66.48
2018-03-04T17:12:49.646Z,69.77
2018-03-04T17:15:17.390Z,69.85
2018-03-04T17:17:45.158Z,68.16
2018-03-04T17:20:12.855Z,67.55
2018-03-04T17:22:40.593Z,69.32
2018-03-04T17:25:08.390Z,70.02
2018-03-04T17:27:36.163Z,70.55
2018-03-04T17:30:03.901Z,70.14
2018-03-04T17:32:31.664Z,70.37
2018-03-04T17:34:59.448Z,71.03
2018-03-04T17:37:27.286Z,70.93
2018-03-04T17:39:54.929Z,71.49
2018-03-04T17:42:22.660Z,70.53
2018-03-04T17:44:50.442Z,70.02
2018-03-04T17:47:18.133Z,70.48
2018-03-04T17:49:45.878Z,71.29
2018-03-04T17:52:13.653Z,72.13
2018-03-04T17:54:41.491Z,71.99
2018-03-04T17:57:09.225Z,71.99
2018-03-04T17:59:37.494Z,71.94
2018-03-04T18:02:05.849Z,72.44
2018-03-04T18:04:33.512Z,71.49
2018-03-04T18:07:01.278Z,72.55
2018-03-04T18:09:28.988Z,72.67
2018-03-04T18:11:56.686Z,72.61
2018-03-04T18:14:24.405Z,73.24
2018-03-04T18:16:52.115Z,73.17
2018-03-04T18:19:19.883Z,74.14
2018-03-04T18:21:47.642Z,74.14
2018-03-04T18:24:15.417Z,74.57
2018-03-04T18:26:43.174Z,74.67
2018-03-04T18:29:10.976Z,74.69
2018-03-04T18:31:38.656Z,75.38
2018-03-04T18:34:06.407Z,75.76
2018-03-04T18:36:34.113Z,74.84
2018-03-04T18:39:01.939Z,74.30
2018-03-04T18:41:29.665Z,75.50
2018-03-04T18:43:57.599Z,75.06
2018-03-04T18:46:25.384Z,75.48
2018-03-04T18:48:54.217Z,75.96
2018-03-04T18:51:22.021Z,76.66
2018-03-04T18:53:49.863Z,75.96
2018-03-04T18:56:17.573Z,76.23
2018-03-04T18:58:45.463Z,76.36
2018-03-04T19:01:13.318Z,76.41
2018-03-04T19:03:41.134Z,77.24
2018-03-04T19:06:08.869Z,76.82
2018-03-04T19:08:36.626Z,76.04
2018-03-04T19:11:04.659Z,75.40
2018-03-04T19:13:32.433Z,75.47
2018-03-04T19:16:00.247Z,76.81
2018-03-04T19:18:28.006Z,77.63
2018-03-04T19:20:55.796Z,76.10
2018-03-04T19:23:23.578Z,75.69
2018-03-04T19:25:51.381Z,75.87
2018-03-04T19:28:19.187Z,75.68
2018-03-04T19:30:46.961Z,75.12
2018-03-04T19:33:14.642Z,76.11
2018-03-04T19:35:42.412Z,75.68
2018-03-04T19:38:10.246Z,75.65
2018-03-04T19:40:38.208Z,76.62
2018-03-04T19:43:06.661Z,77.00
2018-03-04T19:45:34.443Z,77.23
2018-03-04T19:48:02.184Z,77.55
2018-03-04T19:50:30.036Z,77.34
2018-03-04T19:52:58.860Z,77.40
2018-03-04T19:55:26.557Z,76.67
2018-03-04T19:57:54.477Z,77.07
2018-03-04T20:00:22.269Z,77.85
2018-03-04T20:02:50.123Z,78.09
2018-03-04T20:05:17.880Z,78.37
2018-03-04T20:07:45.573Z,78.64
2018-03-04T20:10:13.399Z,78.83
2018-03-04T20:12:41.146Z,79.16
2018-03-04T20:15:09.025Z,79.68
2018-03-04T20:17:37.514Z,79.24
2018-03-04T20:20:05.225Z,79.20
2018-03-04T20:22:32.985Z,79.66
2018-03-04T20:25:00.747Z,79.79
2018-03-04T20:27:28.583Z,79.49
2018-03-04T20:29:56.566Z,79.06
2018-03-04T20:32:24.262Z,78.82
2018-03-04T20:34:52.097Z,79.30
2018-03-04T20:37:19.784Z,79.60
2018-03-04T20:39:47.689Z,79.62
2018-03-04T20:42:15.582Z,80.19
2018-03-04T20:44:43.417Z,79.73
2018-03-04T20:47:11.116Z,79.86
2018-03-04T20:49:38.920Z,80.17
2018-03-04T20:52:06.619Z,80.36
2018-03-04T20:54:34.563Z,80.88
2018-03-04T20:57:02.340Z,80.67
2018-03-04T20:59:30.018Z,80.72
2018-03-04T21:01:57.777Z,80.84
2018-03-04T21:04:25.523Z,80.49
2018-03-04T21:06:53.740Z,80.01
2018-03-04T21:09:21.617Z,80.04
2018-03-04T21:11:49.352Z,79.45
2018-03-04T21:14:17.495Z,79.22
2018-03-04T21:16:45.195Z,79.15
2018-03-04T21:19:12.909Z,80.01
2018-03-04T21:21:40.658Z,80.38
2018-03-04T21:24:08.379Z,80.73
2018-03-04T21:26:36.115Z,80.85
2018-03-04T21:29:03.912Z,80.97
2018-03-04T21:31:31.610Z,81.06
2018-03-04T21:33:59.389Z,80.71
2018-03-04T21:36:27.179Z,82.13
2018-03-04T21:38:54.919Z,81.36
2018-03-04T21:41:22.645Z,81.05
2018-03-04T21:43:50.356Z,80.68
2018-03-04T21:46:18.116Z,80.54
2018-03-04T21:48:45.795Z,81.62
2018-03-04T21:51:13.475Z,81.54
2018-03-04T21:53:42.218Z,81.56
2018-03-04T21:56:10.306Z,82.56
2018-03-04T21:58:38.155Z,82.50
2018-03-04T22:01:06.141Z,81.85
2018-03-04T22:03:34.245Z,81.22
2018-03-04T22:06:02.151Z,81.51
2018-03-04T22:08:30.019Z,81.22
2018-03-04T22:10:57.986Z,81.10
2018-03-04T22:13:25.886Z,81.64
2018-03-04T22:15:53.950Z,81.92
2018-03-04T22:18:22.043Z,81.47
2018-03-04T22:20:50.316Z,81.90
2018-03-04T22:23:18.191Z,81.77
2018-03-04T22:25:46.261Z,82.52
2018-03-04T22:28:14.232Z,82.59
2018-03-04T22:30:42.145Z,82.86
2018-03-04T22:33:10.013Z,82.06
2018-03-04T22:35:38.035Z,82.30
2018-03-04T22:38:06.025Z,82.34
2018-03-04T22:40:34.061Z,82.46
2018-03-04T22:43:02.007Z,84.21
2018-03-04T22:45:30.116Z,83.20
2018-03-04T22:47:59.282Z,83.17
2018-03-04T22:50:27.387Z,83.65
2018-03-04T22:52:56.182Z,83.06
2018-03-04T22:55:23.923Z,82.03
2018-03-04T22:57:51.679Z,82.41
2018-03-04T23:00:19.515Z,83.03
2018-03-04T23:02:47.689Z,82.84
2018-03-04T23:05:15.429Z,82.96
2018-03-04T23:07:43.117Z,83.18
2018-03-04T23:10:11.301Z,83.10
2018-03-04T23:12:39.318Z,83.03
2018-03-04T23:15:07.174Z,82.71
2018-03-04T23:17:34.934Z,82.85
2018-03-04T23:20:04.154Z,83.20
2018-03-04T23:22:32.150Z,83.07
2018-03-04T23:24:59.912Z,83.02
2018-03-04T23:27:27.608Z,83.06
2018-03-04T23:29:55.332Z,83.15
2018-03-04T23:32:23.379Z,83.62
2018-03-04T23:34:51.130Z,84.72
2018-03-04T23:37:18.795Z,84.73
2018-03-04T23:39:46.545Z,83.43
2018-03-04T23:42:14.258Z,82.98
2018-03-04T23:44:41.974Z,82.78
2018-03-04T23:47:09.712Z,82.51
2018-03-04T23:49:37.365Z,83.39
2018-03-04T23:52:05.354Z,82.92
2018-03-04T23:54:33.074Z,82.22
2018-03-04T23:57:01.059Z,82.12
2018-03-04T23:59:28.811Z,83.28
